Sitc Xiamen — 3ELU — position and weather

sailwx.info

Track history (hours):
 
Tides and Currents Weather Stations Pressure Air Temp Water Temp Dewpoint Dewpoint Depression Visibility Wind Speed Wind Dir Waves Ship Positions

Sitc Xiamen

Last reported at 2016-Jun-23 15:16 UTC. Time now 2016-Jun-24 22:19 UTC.
Position N 29°35' E 122°19'.

Length 145 m; draft 8 m.

Type: Cargo ship. MMSI: 355090000.

Date/timePositionNaut miles runAvg speedWind from/ knotsBaromVisibWave heightAir tempDewpointWater temp
2016-Jun-23 15:16N 29°35' E 122°19'912.7
2016-Jun-23 14:33N 29°44' E 122°20'9 9.1
2016-Jun-23 13:33N 29°50' E 122°12'1312.4
2016-Jun-23 12:31N 29°57' E 121°60'8 1.6
2016-Jun-23 07:32N 29°57' E 121°51'2110.7
2016-Jun-23 05:32N 29°49' E 122°14'8 6.3
2016-Jun-23 04:16N 29°47' E 122°22'0 0.1
2016-Jun-23 02:28N 29°47' E 122°22'0 0.0
2016-Jun-23 01:31N 29°47' E 122°22'0 0.1
2016-Jun-23 00:28N 29°47' E 122°22'0 0.1
2016-Jun-22 23:28N 29°47' E 122°22'0 0.1
2016-Jun-22 22:33N 29°47' E 122°23'0 0.0
2016-Jun-22 21:33N 29°47' E 122°23'0 0.1
2016-Jun-22 20:34N 29°47' E 122°22'0 0.1
2016-Jun-22 19:33N 29°47' E 122°23'0 0.0
2016-Jun-22 18:32N 29°47' E 122°23'0 0.1
2016-Jun-22 17:33N 29°47' E 122°22'0 0.2
2016-Jun-22 16:33N 29°47' E 122°23'7 6.6
2016-Jun-22 15:32N 29°49' E 122°30'88 9.8
2016-Jun-22 06:33N 31°14' E 122°03'1614.1
2016-Jun-22 05:26N 31°18' E 121°46'6 6.2
2016-Jun-22 04:26N 31°20' E 121°39'0 0.0
2016-Jun-22 03:32N 31°20' E 121°39'0 0.0
2016-Jun-22 02:20N 31°20' E 121°39'0 0.0
2016-Jun-22 01:32N 31°20' E 121°39'0 0.0
2016-Jun-22 00:32N 31°20' E 121°39'0 0.0
2016-Jun-21 23:20N 31°20' E 121°39'1 1.5
2016-Jun-21 22:33N 31°20' E 121°40'1110.9
2016-Jun-21 21:33N 31°16' E 121°52'35 8.4
2016-Jun-21 17:24N 31°16' E 122°33'  
2016-Jun-18 11:33N 33°21' E 134°27'19813.9
2016-Jun-17 21:17N 34°17' E 138°16'6614.0
2016-Jun-17 16:32N 34°53' E 139°23'1614.7
2016-Jun-17 15:29N 35°02' E 139°39'1314.2
2016-Jun-17 14:33N 35°14' E 139°46'1111.2
2016-Jun-17 13:33N 35°24' E 139°41'0 0.2
2016-Jun-17 12:33N 35°24' E 139°41'0 0.0
2016-Jun-17 11:33N 35°24' E 139°41'0 0.0
2016-Jun-17 10:33N 35°24' E 139°41'1 0.9
2016-Jun-17 09:33N 35°24' E 139°41'1212.2
2016-Jun-17 08:33N 35°34' E 139°49'4 3.5
2016-Jun-17 07:32N 35°37' E 139°46'0 0.0
2016-Jun-17 06:32N 35°37' E 139°46'0 0.0
2016-Jun-17 05:32N 35°37' E 139°46'0 0.0
2016-Jun-17 04:26N 35°37' E 139°46'0 0.4
2016-Jun-17 03:33N 35°36' E 139°46'1010.3
2016-Jun-17 02:34N 35°26' E 139°49'1212.0
2016-Jun-17 01:33N 35°14' E 139°47'7216.3
2016-Jun-16 21:08N 34°32' E 138°36'  
2016-Jun-13 20:31N 31°06' E 122°45'1514.9
2016-Jun-13 19:30N 31°06' E 122°27'1211.4
2016-Jun-13 18:29N 31°09' E 122°14'1111.8
2016-Jun-13 17:32N 31°14' E 122°02'1211.9
2016-Jun-13 16:33N 31°17' E 121°49'  
Track history (hours):
 
Tides and Currents Weather Stations Pressure Air Temp Water Temp Dewpoint Dewpoint Depression Visibility Wind Speed Wind Dir Waves Ship Positions

Sitc Xiamen

Last reported at 2016-Jun-23 15:16 UTC. Time now 2016-Jun-24 22:19 UTC.
Position N 29°35' E 122°19'.

Length 145 m; draft 8 m.

Type: Cargo ship. MMSI: 355090000.

Date/timePositionNaut miles runAvg speedWind from/ knotsBaromVisibWave heightAir tempDewpointWater temp
2016-Jun-23 15:16N 29°35' E 122°19'912.7
2016-Jun-23 14:33N 29°44' E 122°20'9 9.1
2016-Jun-23 13:33N 29°50' E 122°12'1312.4
2016-Jun-23 12:31N 29°57' E 121°60'8 1.6
2016-Jun-23 07:32N 29°57' E 121°51'2110.7
2016-Jun-23 05:32N 29°49' E 122°14'8 6.3
2016-Jun-23 04:16N 29°47' E 122°22'0 0.1
2016-Jun-23 02:28N 29°47' E 122°22'0 0.0
2016-Jun-23 01:31N 29°47' E 122°22'0 0.1
2016-Jun-23 00:28N 29°47' E 122°22'0 0.1
2016-Jun-22 23:28N 29°47' E 122°22'0 0.1
2016-Jun-22 22:33N 29°47' E 122°23'0 0.0
2016-Jun-22 21:33N 29°47' E 122°23'0 0.1
2016-Jun-22 20:34N 29°47' E 122°22'0 0.1
2016-Jun-22 19:33N 29°47' E 122°23'0 0.0
2016-Jun-22 18:32N 29°47' E 122°23'0 0.1
2016-Jun-22 17:33N 29°47' E 122°22'0 0.2
2016-Jun-22 16:33N 29°47' E 122°23'7 6.6
2016-Jun-22 15:32N 29°49' E 122°30'88 9.8
2016-Jun-22 06:33N 31°14' E 122°03'1614.1
2016-Jun-22 05:26N 31°18' E 121°46'6 6.2
2016-Jun-22 04:26N 31°20' E 121°39'0 0.0
2016-Jun-22 03:32N 31°20' E 121°39'0 0.0
2016-Jun-22 02:20N 31°20' E 121°39'0 0.0
2016-Jun-22 01:32N 31°20' E 121°39'0 0.0
2016-Jun-22 00:32N 31°20' E 121°39'0 0.0
2016-Jun-21 23:20N 31°20' E 121°39'1 1.5
2016-Jun-21 22:33N 31°20' E 121°40'1110.9
2016-Jun-21 21:33N 31°16' E 121°52'35 8.4
2016-Jun-21 17:24N 31°16' E 122°33'  
2016-Jun-18 11:33N 33°21' E 134°27'19813.9
2016-Jun-17 21:17N 34°17' E 138°16'6614.0
2016-Jun-17 16:32N 34°53' E 139°23'1614.7
2016-Jun-17 15:29N 35°02' E 139°39'1314.2
2016-Jun-17 14:33N 35°14' E 139°46'1111.2
2016-Jun-17 13:33N 35°24' E 139°41'0 0.2
2016-Jun-17 12:33N 35°24' E 139°41'0 0.0
2016-Jun-17 11:33N 35°24' E 139°41'0 0.0
2016-Jun-17 10:33N 35°24' E 139°41'1 0.9
2016-Jun-17 09:33N 35°24' E 139°41'1212.2
2016-Jun-17 08:33N 35°34' E 139°49'4 3.5
2016-Jun-17 07:32N 35°37' E 139°46'0 0.0
2016-Jun-17 06:32N 35°37' E 139°46'0 0.0
2016-Jun-17 05:32N 35°37' E 139°46'0 0.0
2016-Jun-17 04:26N 35°37' E 139°46'0 0.4
2016-Jun-17 03:33N 35°36' E 139°46'1010.3
2016-Jun-17 02:34N 35°26' E 139°49'1212.0
2016-Jun-17 01:33N 35°14' E 139°47'7216.3
2016-Jun-16 21:08N 34°32' E 138°36'  
2016-Jun-13 20:31N 31°06' E 122°45'1514.9
2016-Jun-13 19:30N 31°06' E 122°27'1211.4
2016-Jun-13 18:29N 31°09' E 122°14'1111.8
2016-Jun-13 17:32N 31°14' E 122°02'1211.9
2016-Jun-13 16:33N 31°17' E 121°49'  

Dump ship's entire track history